Time,TemperatureF,DewpointF,PressureIn,WindDirection,WindDirectionDegrees,WindSpeedMPH,WindSpeedGustMPH,Humidity,HourlyPrecipIn,Conditions,Clouds,dailyrainin,SolarRadiationWatts/m^2,SoftwareType,DateUTC
2013-02-27 00:02:00,38.0,35.0,-100.00,WSW,244,6.0,15.0,90,0.00,,,0.57,0.000000,,2013-02-27 06:02:00,
2013-02-27 00:11:00,38.0,35.0,-100.00,WSW,244,6.0,15.0,90,0.00,,,0.57,0.000000,,2013-02-27 06:11:00,
2013-02-27 00:21:00,38.0,35.0,-100.00,WSW,244,6.0,15.0,90,0.00,,,0.57,0.000000,,2013-02-27 06:21:00,
2013-02-27 00:33:00,38.0,35.0,-100.00,WSW,244,6.0,15.0,90,0.00,,,0.57,0.000000,,2013-02-27 06:33:00,
2013-02-27 01:01:00,38.0,34.0,-100.00,WSW,244,7.0,15.0,85,0.00,,,0.52,0.000000,,2013-02-27 07:01:00,
2013-02-27 01:12:00,38.0,34.0,-100.00,WSW,244,7.0,15.0,85,0.00,,,0.52,0.000000,,2013-02-27 07:12:00,
2013-02-27 01:21:00,38.0,34.0,-100.00,WSW,244,7.0,15.0,85,0.00,,,0.52,0.000000,,2013-02-27 07:21:00,
2013-02-27 01:32:00,38.0,34.0,-100.00,WSW,244,7.0,15.0,85,0.00,,,0.52,0.000000,,2013-02-27 07:32:00,
2013-02-27 01:52:00,38.0,33.0,-100.00,WSW,246,5.0,16.0,83,0.00,,,0.40,0.000000,,2013-02-27 07:52:00,
2013-02-27 02:01:00,38.0,33.0,-100.00,WSW,246,5.0,16.0,83,0.00,,,0.40,0.000000,,2013-02-27 08:01:00,
2013-02-27 02:11:00,38.0,33.0,-100.00,WSW,246,5.0,16.0,83,0.00,,,0.40,0.000000,,2013-02-27 08:11:00,
2013-02-27 02:21:00,38.0,33.0,-100.00,WSW,246,5.0,16.0,83,0.00,,,0.40,0.000000,,2013-02-27 08:21:00,
2013-02-27 02:32:00,38.0,33.0,-100.00,WSW,246,5.0,16.0,83,0.00,,,0.40,0.000000,,2013-02-27 08:32:00,
2013-02-27 03:02:00,38.0,33.0,-100.00,WSW,246,7.0,14.0,82,0.00,,,0.20,0.000000,,2013-02-27 09:02:00,
2013-02-27 03:12:00,38.0,33.0,-100.00,WSW,246,7.0,14.0,82,0.00,,,0.20,0.000000,,2013-02-27 09:12:00,
2013-02-27 03:22:00,38.0,33.0,-100.00,WSW,246,7.0,14.0,82,0.00,,,0.20,0.000000,,2013-02-27 09:22:00,
2013-02-27 03:32:00,38.0,33.0,-100.00,WSW,246,7.0,14.0,82,0.00,,,0.20,0.000000,,2013-02-27 09:32:00,
2013-02-27 03:52:00,37.0,32.0,-100.00,WSW,251,8.0,17.0,81,0.00,,,0.19,0.000000,,2013-02-27 09:52:00,
2013-02-27 04:01:00,37.0,32.0,-100.00,WSW,251,8.0,17.0,81,0.00,,,0.19,0.000000,,2013-02-27 10:01:00,
2013-02-27 04:12:00,37.0,32.0,-100.00,WSW,251,8.0,17.0,81,0.00,,,0.19,0.000000,,2013-02-27 10:12:00,
2013-02-27 04:22:00,37.0,32.0,-100.00,WSW,251,8.0,17.0,81,0.00,,,0.19,0.000000,,2013-02-27 10:22:00,
2013-02-27 04:32:00,37.0,32.0,-100.00,WSW,251,8.0,17.0,81,0.00,,,0.19,0.000000,,2013-02-27 10:32:00,
2013-02-27 05:02:00,37.0,32.0,-100.00,WSW,251,7.0,18.0,81,0.00,,,0.16,0.000000,,2013-02-27 11:02:00,
2013-02-27 05:12:00,37.0,32.0,-100.00,WSW,251,7.0,18.0,81,0.00,,,0.16,0.000000,,2013-02-27 11:12:00,
2013-02-27 05:22:00,37.0,32.0,-100.00,WSW,251,7.0,18.0,81,0.00,,,0.16,0.000000,,2013-02-27 11:22:00,
2013-02-27 05:32:00,37.0,32.0,-100.00,WSW,251,7.0,18.0,81,0.00,,,0.16,0.000000,,2013-02-27 11:32:00,
2013-02-27 05:52:00,37.0,32.0,-100.00,WSW,251,5.0,21.0,82,0.00,,,-99.99,0.000000,,2013-02-27 11:52:00,
2013-02-27 06:02:00,37.0,32.0,-100.00,WSW,251,5.0,21.0,82,0.00,,,-99.99,0.000000,,2013-02-27 12:02:00,
2013-02-27 06:13:00,37.0,32.0,-100.00,WSW,251,5.0,21.0,82,0.00,,,-99.99,0.000000,,2013-02-27 12:13:00,
2013-02-27 06:22:00,37.0,32.0,-100.00,WSW,251,5.0,21.0,82,0.00,,,-99.99,0.000000,,2013-02-27 12:22:00,
2013-02-27 06:33:00,37.0,32.0,-100.00,WSW,251,5.0,21.0,82,0.00,,,-99.99,0.000000,,2013-02-27 12:33:00,
2013-02-27 07:02:00,37.0,31.0,-100.00,WSW,248,6.0,18.0,79,0.00,,,0.16,0.000000,,2013-02-27 13:02:00,
2013-02-27 07:11:00,37.0,31.0,-100.00,WSW,248,6.0,18.0,79,0.00,,,0.16,0.000000,,2013-02-27 13:11:00,
2013-02-27 07:22:00,37.0,31.0,-100.00,WSW,248,6.0,18.0,79,0.00,,,0.16,0.000000,,2013-02-27 13:22:00,
2013-02-27 07:32:00,37.0,31.0,-100.00,WSW,248,6.0,18.0,79,0.00,,,0.16,0.000000,,2013-02-27 13:32:00,
2013-02-27 08:02:00,37.0,32.0,-100.00,WSW,248,6.0,14.0,82,0.00,,,0.14,6.000000,,2013-02-27 14:02:00,
2013-02-27 08:12:00,37.0,32.0,-100.00,WSW,248,6.0,14.0,82,0.00,,,0.14,6.000000,,2013-02-27 14:12:00,
2013-02-27 08:22:00,37.0,32.0,-100.00,WSW,248,6.0,14.0,82,0.00,,,0.14,6.000000,,2013-02-27 14:22:00,
2013-02-27 08:32:00,37.0,32.0,-100.00,WSW,248,6.0,14.0,82,0.00,,,0.14,6.000000,,2013-02-27 14:32:00,
2013-02-27 09:02:00,37.0,32.0,-100.00,WSW,239,6.0,14.0,81,0.00,,,0.08,23.000000,,2013-02-27 15:02:00,
2013-02-27 09:12:00,37.0,32.0,-100.00,WSW,239,6.0,14.0,81,0.00,,,0.08,23.000000,,2013-02-27 15:12:00,
2013-02-27 09:22:00,37.0,32.0,-100.00,WSW,239,6.0,14.0,81,0.00,,,0.08,23.000000,,2013-02-27 15:22:00,
2013-02-27 09:32:00,37.0,32.0,-100.00,WSW,239,6.0,14.0,81,0.00,,,0.08,23.000000,,2013-02-27 15:32:00,
2013-02-27 10:02:00,37.0,29.0,-100.00,West,259,7.0,15.0,73,0.00,,,0.07,52.000000,,2013-02-27 16:02:00,
2013-02-27 10:12:00,37.0,29.0,-100.00,West,259,7.0,15.0,73,0.00,,,0.07,52.000000,,2013-02-27 16:12:00,
2013-02-27 10:22:00,37.0,29.0,-100.00,West,259,7.0,15.0,73,0.00,,,0.07,52.000000,,2013-02-27 16:22:00,
2013-02-27 10:32:00,37.0,29.0,-100.00,West,259,7.0,15.0,73,0.00,,,0.07,52.000000,,2013-02-27 16:32:00,
2013-02-27 11:02:00,37.0,31.0,-100.00,WSW,256,6.0,14.0,79,0.00,,,0.07,50.000000,,2013-02-27 17:02:00,
2013-02-27 11:11:00,37.0,31.0,-100.00,WSW,256,6.0,14.0,79,0.00,,,0.07,50.000000,,2013-02-27 17:11:00,
2013-02-27 11:21:00,37.0,31.0,-100.00,WSW,256,6.0,14.0,79,0.00,,,0.07,50.000000,,2013-02-27 17:21:00,
2013-02-27 11:32:00,37.0,31.0,-100.00,WSW,256,6.0,14.0,79,0.00,,,0.07,50.000000,,2013-02-27 17:32:00,
2013-02-27 12:02:00,38.0,29.0,-100.00,WSW,238,6.0,16.0,71,0.00,,,0.07,89.000000,,2013-02-27 18:02:00,
2013-02-27 12:11:00,38.0,29.0,-100.00,WSW,238,6.0,16.0,71,0.00,,,0.07,89.000000,,2013-02-27 18:11:00,
2013-02-27 12:22:00,38.0,29.0,-100.00,WSW,238,6.0,16.0,71,0.00,,,0.07,89.000000,,2013-02-27 18:22:00,
2013-02-27 12:32:00,38.0,29.0,-100.00,WSW,238,6.0,16.0,71,0.00,,,0.07,89.000000,,2013-02-27 18:32:00,
2013-02-27 13:01:00,39.0,29.0,-100.00,WSW,252,7.0,15.0,66,0.00,,,0.07,118.000000,,2013-02-27 19:01:00,
2013-02-27 13:12:00,39.0,29.0,-100.00,WSW,252,7.0,15.0,66,0.00,,,0.07,118.000000,,2013-02-27 19:12:00,
2013-02-27 13:21:00,39.0,29.0,-100.00,WSW,252,7.0,15.0,66,0.00,,,0.07,118.000000,,2013-02-27 19:21:00,
2013-02-27 13:32:00,39.0,29.0,-100.00,WSW,252,7.0,15.0,66,0.00,,,0.07,118.000000,,2013-02-27 19:32:00,
2013-02-27 14:01:00,38.0,28.0,-100.00,WSW,254,7.0,19.0,66,0.00,,,0.06,79.000000,,2013-02-27 20:01:00,
2013-02-27 14:12:00,38.0,28.0,-100.00,WSW,254,7.0,19.0,66,0.00,,,0.06,79.000000,,2013-02-27 20:12:00,
2013-02-27 14:21:00,38.0,28.0,-100.00,WSW,254,7.0,19.0,66,0.00,,,0.06,79.000000,,2013-02-27 20:21:00,
2013-02-27 14:32:00,38.0,28.0,-100.00,WSW,254,7.0,19.0,66,0.00,,,0.06,79.000000,,2013-02-27 20:32:00,
2013-02-27 15:02:00,37.0,31.0,-100.00,WSW,243,7.0,18.0,80,0.00,,,-99.99,99.000000,,2013-02-27 21:02:00,
2013-02-27 15:11:00,37.0,31.0,-100.00,WSW,243,7.0,18.0,80,0.00,,,-99.99,99.000000,,2013-02-27 21:11:00,
2013-02-27 15:22:00,37.0,31.0,-100.00,WSW,243,7.0,18.0,80,0.00,,,-99.99,99.000000,,2013-02-27 21:22:00,
2013-02-27 15:32:00,37.0,31.0,-100.00,WSW,243,7.0,18.0,80,0.00,,,-99.99,99.000000,,2013-02-27 21:32:00,
2013-02-27 16:01:00,37.0,33.0,-100.00,WSW,242,6.0,15.0,84,0.00,,,0.05,71.000000,,2013-02-27 22:01:00,
2013-02-27 16:11:00,37.0,33.0,-100.00,WSW,242,6.0,15.0,84,0.00,,,0.05,71.000000,,2013-02-27 22:11:00,
2013-02-27 16:21:00,37.0,33.0,-100.00,WSW,242,6.0,15.0,84,0.00,,,0.05,71.000000,,2013-02-27 22:21:00,
2013-02-27 16:31:00,37.0,33.0,-100.00,WSW,242,6.0,15.0,84,0.00,,,0.05,71.000000,,2013-02-27 22:31:00,
2013-02-27 17:01:00,37.0,33.0,-100.00,WSW,247,5.0,15.0,84,0.00,,,0.04,31.000000,,2013-02-27 23:01:00,
2013-02-27 17:11:00,37.0,33.0,-100.00,WSW,247,5.0,15.0,84,0.00,,,0.04,31.000000,,2013-02-27 23:11:00,
2013-02-27 17:21:00,37.0,33.0,-100.00,WSW,247,5.0,15.0,84,0.00,,,0.04,31.000000,,2013-02-27 23:21:00,
2013-02-27 17:32:00,37.0,33.0,-100.00,WSW,247,5.0,15.0,84,0.00,,,0.04,31.000000,,2013-02-27 23:32:00,
2013-02-27 18:02:00,38.0,31.0,-100.00,WSW,247,7.0,15.0,77,0.00,,,0.02,14.000000,,2013-02-28 00:02:00,
2013-02-27 18:12:00,38.0,31.0,-100.00,WSW,247,7.0,15.0,77,0.00,,,0.02,14.000000,,2013-02-28 00:12:00,
2013-02-27 18:21:00,38.0,31.0,-100.00,WSW,247,7.0,15.0,77,0.00,,,0.02,14.000000,,2013-02-28 00:21:00,
2013-02-27 18:32:00,38.0,31.0,-100.00,WSW,247,7.0,15.0,77,0.00,,,0.02,14.000000,,2013-02-28 00:32:00,
2013-02-27 18:52:00,38.0,30.0,-100.00,West,263,6.0,19.0,74,0.00,,,0.02,0.000000,,2013-02-28 00:52:00,
2013-02-27 19:01:00,38.0,30.0,-100.00,West,263,6.0,19.0,74,0.00,,,0.02,0.000000,,2013-02-28 01:01:00,
2013-02-27 19:11:00,38.0,30.0,-100.00,West,263,6.0,19.0,74,0.00,,,0.02,0.000000,,2013-02-28 01:11:00,
2013-02-27 19:21:00,38.0,30.0,-100.00,West,263,6.0,19.0,74,0.00,,,0.02,0.000000,,2013-02-28 01:21:00,
2013-02-27 19:32:00,38.0,30.0,-100.00,West,263,6.0,19.0,74,0.00,,,0.02,0.000000,,2013-02-28 01:32:00,
2013-02-27 20:01:00,37.0,29.0,-100.00,WSW,255,6.0,17.0,74,0.00,,,0.02,0.000000,,2013-02-28 02:01:00,
2013-02-27 20:11:00,37.0,29.0,-100.00,WSW,255,6.0,17.0,74,0.00,,,0.02,0.000000,,2013-02-28 02:11:00,
2013-02-27 20:22:00,37.0,29.0,-100.00,WSW,255,6.0,17.0,74,0.00,,,0.02,0.000000,,2013-02-28 02:22:00,
2013-02-27 20:31:00,37.0,29.0,-100.00,WSW,255,6.0,17.0,74,0.00,,,0.02,0.000000,,2013-02-28 02:31:00,
2013-02-27 21:01:00,37.0,29.0,-100.00,WSW,251,5.0,14.0,72,0.00,,,0.01,0.000000,,2013-02-28 03:01:00,
2013-02-27 21:11:00,37.0,29.0,-100.00,WSW,251,5.0,14.0,72,0.00,,,0.01,0.000000,,2013-02-28 03:11:00,
2013-02-27 21:21:00,37.0,29.0,-100.00,WSW,251,5.0,14.0,72,0.00,,,0.01,0.000000,,2013-02-28 03:21:00,
2013-02-27 21:32:00,37.0,29.0,-100.00,WSW,251,5.0,14.0,72,0.00,,,0.01,0.000000,,2013-02-28 03:32:00,
2013-02-27 22:02:00,37.0,29.0,-100.00,West,266,7.0,18.0,74,0.00,,,0.00,0.000000,,2013-02-28 04:02:00,
2013-02-27 22:11:00,37.0,29.0,-100.00,West,266,7.0,18.0,74,0.00,,,0.00,0.000000,,2013-02-28 04:11:00,
2013-02-27 22:21:00,37.0,29.0,-100.00,West,266,7.0,18.0,74,0.00,,,0.00,0.000000,,2013-02-28 04:21:00,
2013-02-27 22:32:00,37.0,29.0,-100.00,West,266,7.0,18.0,74,0.00,,,0.00,0.000000,,2013-02-28 04:32:00,
2013-02-27 23:01:00,36.0,30.0,-100.00,West,280,8.0,15.0,78,0.00,,,0.00,0.000000,,2013-02-28 05:01:00,
2013-02-27 23:11:00,36.0,30.0,-100.00,West,280,8.0,15.0,78,0.00,,,0.00,0.000000,,2013-02-28 05:11:00,
2013-02-27 23:22:00,36.0,30.0,-100.00,West,280,8.0,15.0,78,0.00,,,0.00,0.000000,,2013-02-28 05:22:00,
2013-02-27 23:31:00,36.0,30.0,-100.00,West,280,8.0,15.0,78,0.00,,,0.00,0.000000,,2013-02-28 05:31:00,